sensor_id;sensor_type;location;lat;lon;timestamp;P1;durP1;ratioP1;P2;durP2;ratioP2
8228;SDS011;4155;50.118;8.714;2022-10-30T00:00:31;21.83;;;11.60;;
8228;SDS011;4155;50.118;8.714;2022-10-30T00:03:00;20.27;;;11.73;;
8228;SDS011;4155;50.118;8.714;2022-10-30T00:05:29;16.77;;;11.00;;
8228;SDS011;4155;50.118;8.714;2022-10-30T00:07:57;17.73;;;11.90;;
8228;SDS011;4155;50.118;8.714;2022-10-30T00:10:25;28.30;;;12.70;;
8228;SDS011;4155;50.118;8.714;2022-10-30T00:12:53;28.67;;;12.17;;
8228;SDS011;4155;50.118;8.714;2022-10-30T00:15:20;26.67;;;12.00;;
8228;SDS011;4155;50.118;8.714;2022-10-30T00:17:48;21.40;;;11.70;;
8228;SDS011;4155;50.118;8.714;2022-10-30T00:20:17;21.60;;;12.40;;
8228;SDS011;4155;50.118;8.714;2022-10-30T00:22:45;23.43;;;13.07;;
8228;SDS011;4155;50.118;8.714;2022-10-30T00:25:12;26.47;;;12.83;;
8228;SDS011;4155;50.118;8.714;2022-10-30T00:27:40;24.53;;;13.77;;
8228;SDS011;4155;50.118;8.714;2022-10-30T00:30:08;27.27;;;11.73;;
8228;SDS011;4155;50.118;8.714;2022-10-30T00:32:37;31.97;;;12.33;;
8228;SDS011;4155;50.118;8.714;2022-10-30T00:35:05;18.33;;;12.07;;
8228;SDS011;4155;50.118;8.714;2022-10-30T00:37:34;19.53;;;10.90;;
8228;SDS011;4155;50.118;8.714;2022-10-30T00:40:03;16.10;;;11.30;;
8228;SDS011;4155;50.118;8.714;2022-10-30T00:42:32;26.17;;;12.63;;
8228;SDS011;4155;50.118;8.714;2022-10-30T00:45:00;20.03;;;10.43;;
8228;SDS011;4155;50.118;8.714;2022-10-30T00:47:29;30.27;;;12.17;;
8228;SDS011;4155;50.118;8.714;2022-10-30T00:50:02;24.53;;;14.60;;
8228;SDS011;4155;50.118;8.714;2022-10-30T00:52:35;32.20;;;13.67;;
8228;SDS011;4155;50.118;8.714;2022-10-30T00:55:08;26.27;;;14.60;;
8228;SDS011;4155;50.118;8.714;2022-10-30T00:57:40;28.13;;;13.97;;
8228;SDS011;4155;50.118;8.714;2022-10-30T01:00:10;29.97;;;15.50;;
8228;SDS011;4155;50.118;8.714;2022-10-30T01:02:39;21.70;;;13.23;;
8228;SDS011;4155;50.118;8.714;2022-10-30T01:05:10;23.20;;;15.07;;
8228;SDS011;4155;50.118;8.714;2022-10-30T01:07:42;24.70;;;15.10;;
8228;SDS011;4155;50.118;8.714;2022-10-30T01:10:11;25.07;;;14.13;;
8228;SDS011;4155;50.118;8.714;2022-10-30T01:12:40;21.80;;;15.20;;
8228;SDS011;4155;50.118;8.714;2022-10-30T01:15:10;29.57;;;13.33;;
8228;SDS011;4155;50.118;8.714;2022-10-30T01:17:46;34.70;;;14.50;;
8228;SDS011;4155;50.118;8.714;2022-10-30T01:20:30;20.13;;;11.97;;
8228;SDS011;4155;50.118;8.714;2022-10-30T01:23:13;24.03;;;12.80;;
8228;SDS011;4155;50.118;8.714;2022-10-30T01:25:54;23.87;;;12.93;;
8228;SDS011;4155;50.118;8.714;2022-10-30T01:28:34;20.70;;;10.93;;
8228;SDS011;4155;50.118;8.714;2022-10-30T01:31:19;23.40;;;13.50;;
8228;SDS011;4155;50.118;8.714;2022-10-30T01:34:02;74.70;;;43.70;;
8228;SDS011;4155;50.118;8.714;2022-10-30T01:36:42;63.50;;;37.43;;
8228;SDS011;4155;50.118;8.714;2022-10-30T01:39:18;42.37;;;24.27;;
8228;SDS011;4155;50.118;8.714;2022-10-30T01:41:48;30.00;;;18.67;;
8228;SDS011;4155;50.118;8.714;2022-10-30T01:44:17;25.93;;;16.43;;
8228;SDS011;4155;50.118;8.714;2022-10-30T01:46:54;30.63;;;15.70;;
8228;SDS011;4155;50.118;8.714;2022-10-30T01:49:52;32.70;;;18.83;;
8228;SDS011;4155;50.118;8.714;2022-10-30T01:52:32;37.33;;;21.97;;
8228;SDS011;4155;50.118;8.714;2022-10-30T01:55:12;34.83;;;17.63;;
8228;SDS011;4155;50.118;8.714;2022-10-30T01:57:50;29.53;;;15.17;;
8228;SDS011;4155;50.118;8.714;2022-10-30T02:00:23;26.67;;;13.20;;
8228;SDS011;4155;50.118;8.714;2022-10-30T02:02:53;27.50;;;15.13;;
8228;SDS011;4155;50.118;8.714;2022-10-30T02:05:24;32.90;;;15.20;;
8228;SDS011;4155;50.118;8.714;2022-10-30T02:07:56;35.73;;;17.27;;
8228;SDS011;4155;50.118;8.714;2022-10-30T02:10:25;30.70;;;15.97;;
8228;SDS011;4155;50.118;8.714;2022-10-30T02:12:54;22.03;;;12.43;;
8228;SDS011;4155;50.118;8.714;2022-10-30T02:15:21;23.67;;;12.90;;
8228;SDS011;4155;50.118;8.714;2022-10-30T02:17:49;31.30;;;17.47;;
8228;SDS011;4155;50.118;8.714;2022-10-30T02:20:18;31.80;;;15.00;;
8228;SDS011;4155;50.118;8.714;2022-10-30T02:22:46;24.80;;;13.97;;
8228;SDS011;4155;50.118;8.714;2022-10-30T02:25:21;24.37;;;12.33;;
8228;SDS011;4155;50.118;8.714;2022-10-30T02:27:49;27.23;;;13.67;;
8228;SDS011;4155;50.118;8.714;2022-10-30T02:30:16;26.03;;;11.67;;
8228;SDS011;4155;50.118;8.714;2022-10-30T02:32:44;20.30;;;12.07;;
8228;SDS011;4155;50.118;8.714;2022-10-30T02:35:12;21.37;;;12.83;;
8228;SDS011;4155;50.118;8.714;2022-10-30T02:37:41;21.80;;;11.70;;
8228;SDS011;4155;50.118;8.714;2022-10-30T02:40:09;23.03;;;11.90;;
8228;SDS011;4155;50.118;8.714;2022-10-30T02:42:37;18.03;;;11.40;;
8228;SDS011;4155;50.118;8.714;2022-10-30T02:45:05;16.67;;;10.93;;
8228;SDS011;4155;50.118;8.714;2022-10-30T02:47:33;24.20;;;12.23;;
8228;SDS011;4155;50.118;8.714;2022-10-30T02:50:01;22.20;;;11.30;;
8228;SDS011;4155;50.118;8.714;2022-10-30T02:52:28;20.60;;;11.53;;
8228;SDS011;4155;50.118;8.714;2022-10-30T02:54:57;20.20;;;11.57;;
8228;SDS011;4155;50.118;8.714;2022-10-30T02:57:25;28.93;;;11.33;;
8228;SDS011;4155;50.118;8.714;2022-10-30T02:59:53;22.23;;;11.70;;
8228;SDS011;4155;50.118;8.714;2022-10-30T03:02:20;20.50;;;10.93;;
8228;SDS011;4155;50.118;8.714;2022-10-30T03:04:51;24.23;;;11.70;;
8228;SDS011;4155;50.118;8.714;2022-10-30T03:07:18;26.20;;;11.10;;
8228;SDS011;4155;50.118;8.714;2022-10-30T03:09:46;17.70;;;11.03;;
8228;SDS011;4155;50.118;8.714;2022-10-30T03:12:15;20.27;;;10.80;;
8228;SDS011;4155;50.118;8.714;2022-10-30T03:14:43;17.80;;;9.23;;
8228;SDS011;4155;50.118;8.714;2022-10-30T03:17:10;19.30;;;10.10;;
8228;SDS011;4155;50.118;8.714;2022-10-30T03:19:40;17.73;;;9.43;;
8228;SDS011;4155;50.118;8.714;2022-10-30T03:22:08;17.23;;;9.67;;
8228;SDS011;4155;50.118;8.714;2022-10-30T03:24:36;16.93;;;9.37;;
8228;SDS011;4155;50.118;8.714;2022-10-30T03:27:04;21.13;;;9.87;;
8228;SDS011;4155;50.118;8.714;2022-10-30T03:29:33;21.77;;;9.53;;
8228;SDS011;4155;50.118;8.714;2022-10-30T03:32:01;21.03;;;11.67;;
8228;SDS011;4155;50.118;8.714;2022-10-30T03:34:29;16.80;;;11.20;;
8228;SDS011;4155;50.118;8.714;2022-10-30T03:36:56;21.57;;;11.30;;
8228;SDS011;4155;50.118;8.714;2022-10-30T03:39:24;24.27;;;10.97;;
8228;SDS011;4155;50.118;8.714;2022-10-30T03:41:51;23.43;;;12.47;;
8228;SDS011;4155;50.118;8.714;2022-10-30T03:44:19;26.60;;;14.93;;
8228;SDS011;4155;50.118;8.714;2022-10-30T03:46:48;22.00;;;13.67;;
8228;SDS011;4155;50.118;8.714;2022-10-30T03:49:15;26.40;;;14.17;;
8228;SDS011;4155;50.118;8.714;2022-10-30T03:51:43;25.97;;;14.50;;
8228;SDS011;4155;50.118;8.714;2022-10-30T03:54:11;21.07;;;14.00;;
8228;SDS011;4155;50.118;8.714;2022-10-30T03:56:38;26.23;;;13.17;;
8228;SDS011;4155;50.118;8.714;2022-10-30T03:59:08;24.70;;;11.67;;
8228;SDS011;4155;50.118;8.714;2022-10-30T04:01:36;26.90;;;13.30;;
8228;SDS011;4155;50.118;8.714;2022-10-30T04:04:05;23.33;;;13.70;;
8228;SDS011;4155;50.118;8.714;2022-10-30T04:06:33;26.40;;;12.90;;
8228;SDS011;4155;50.118;8.714;2022-10-30T04:09:00;23.53;;;12.17;;
8228;SDS011;4155;50.118;8.714;2022-10-30T04:11:28;21.63;;;13.47;;
8228;SDS011;4155;50.118;8.714;2022-10-30T04:13:56;24.80;;;12.77;;
8228;SDS011;4155;50.118;8.714;2022-10-30T04:16:23;21.27;;;10.47;;
8228;SDS011;4155;50.118;8.714;2022-10-30T04:18:51;16.90;;;11.50;;
8228;SDS011;4155;50.118;8.714;2022-10-30T04:21:20;23.03;;;11.00;;
8228;SDS011;4155;50.118;8.714;2022-10-30T04:23:48;20.90;;;10.80;;
8228;SDS011;4155;50.118;8.714;2022-10-30T04:26:15;19.23;;;11.00;;
8228;SDS011;4155;50.118;8.714;2022-10-30T04:28:46;20.83;;;10.80;;
8228;SDS011;4155;50.118;8.714;2022-10-30T04:31:14;18.00;;;11.13;;
8228;SDS011;4155;50.118;8.714;2022-10-30T04:33:41;22.27;;;13.00;;
8228;SDS011;4155;50.118;8.714;2022-10-30T04:36:09;20.00;;;11.33;;
8228;SDS011;4155;50.118;8.714;2022-10-30T04:38:38;24.50;;;11.20;;
8228;SDS011;4155;50.118;8.714;2022-10-30T04:41:05;19.90;;;11.03;;
8228;SDS011;4155;50.118;8.714;2022-10-30T04:43:33;20.33;;;11.87;;
8228;SDS011;4155;50.118;8.714;2022-10-30T04:46:02;20.80;;;11.80;;
8228;SDS011;4155;50.118;8.714;2022-10-30T04:48:30;19.63;;;11.43;;
8228;SDS011;4155;50.118;8.714;2022-10-30T04:51:00;17.00;;;10.77;;
8228;SDS011;4155;50.118;8.714;2022-10-30T04:53:27;19.83;;;10.27;;
8228;SDS011;4155;50.118;8.714;2022-10-30T04:55:56;17.40;;;10.97;;
8228;SDS011;4155;50.118;8.714;2022-10-30T04:58:24;19.37;;;10.00;;
8228;SDS011;4155;50.118;8.714;2022-10-30T05:00:52;16.57;;;9.20;;
8228;SDS011;4155;50.118;8.714;2022-10-30T05:03:27;19.37;;;10.50;;
8228;SDS011;4155;50.118;8.714;2022-10-30T05:05:55;24.37;;;10.70;;
8228;SDS011;4155;50.118;8.714;2022-10-30T05:08:24;14.27;;;10.20;;
8228;SDS011;4155;50.118;8.714;2022-10-30T05:10:52;21.13;;;10.63;;
8228;SDS011;4155;50.118;8.714;2022-10-30T05:13:21;16.03;;;9.03;;
8228;SDS011;4155;50.118;8.714;2022-10-30T05:15:49;14.67;;;9.63;;
8228;SDS011;4155;50.118;8.714;2022-10-30T05:18:17;15.17;;;9.43;;
8228;SDS011;4155;50.118;8.714;2022-10-30T05:20:45;19.50;;;10.70;;
8228;SDS011;4155;50.118;8.714;2022-10-30T05:23:13;20.10;;;9.63;;
8228;SDS011;4155;50.118;8.714;2022-10-30T05:25:41;20.33;;;9.83;;
8228;SDS011;4155;50.118;8.714;2022-10-30T05:28:08;25.77;;;10.30;;
8228;SDS011;4155;50.118;8.714;2022-10-30T05:30:38;17.93;;;9.57;;
8228;SDS011;4155;50.118;8.714;2022-10-30T05:33:06;12.03;;;8.97;;
8228;SDS011;4155;50.118;8.714;2022-10-30T05:35:36;18.80;;;9.90;;
8228;SDS011;4155;50.118;8.714;2022-10-30T05:38:05;23.27;;;9.90;;
8228;SDS011;4155;50.118;8.714;2022-10-30T05:40:33;21.27;;;9.30;;
8228;SDS011;4155;50.118;8.714;2022-10-30T05:43:01;14.23;;;9.70;;
8228;SDS011;4155;50.118;8.714;2022-10-30T05:45:29;17.87;;;8.60;;
8228;SDS011;4155;50.118;8.714;2022-10-30T05:48:02;16.27;;;9.53;;
8228;SDS011;4155;50.118;8.714;2022-10-30T05:50:31;16.97;;;9.70;;
8228;SDS011;4155;50.118;8.714;2022-10-30T05:53:00;18.13;;;9.27;;
8228;SDS011;4155;50.118;8.714;2022-10-30T05:55:29;14.07;;;8.60;;
8228;SDS011;4155;50.118;8.714;2022-10-30T05:57:57;12.47;;;8.70;;
8228;SDS011;4155;50.118;8.714;2022-10-30T06:00:27;14.27;;;9.30;;
8228;SDS011;4155;50.118;8.714;2022-10-30T06:02:59;31.03;;;8.60;;
8228;SDS011;4155;50.118;8.714;2022-10-30T06:05:29;16.17;;;8.60;;
8228;SDS011;4155;50.118;8.714;2022-10-30T06:07:57;13.17;;;8.20;;
8228;SDS011;4155;50.118;8.714;2022-10-30T06:10:25;13.27;;;8.47;;
8228;SDS011;4155;50.118;8.714;2022-10-30T06:12:53;19.53;;;9.03;;
8228;SDS011;4155;50.118;8.714;2022-10-30T06:15:23;12.30;;;8.83;;
8228;SDS011;4155;50.118;8.714;2022-10-30T06:17:51;19.27;;;8.27;;
8228;SDS011;4155;50.118;8.714;2022-10-30T06:20:21;11.60;;;8.10;;
8228;SDS011;4155;50.118;8.714;2022-10-30T06:22:53;16.50;;;9.07;;
8228;SDS011;4155;50.118;8.714;2022-10-30T06:25:21;18.83;;;8.47;;
8228;SDS011;4155;50.118;8.714;2022-10-30T06:27:48;16.17;;;9.17;;
8228;SDS011;4155;50.118;8.714;2022-10-30T06:30:17;11.60;;;7.30;;
8228;SDS011;4155;50.118;8.714;2022-10-30T06:32:45;21.43;;;9.20;;
8228;SDS011;4155;50.118;8.714;2022-10-30T06:35:13;15.70;;;8.20;;
8228;SDS011;4155;50.118;8.714;2022-10-30T06:37:46;18.50;;;8.30;;
8228;SDS011;4155;50.118;8.714;2022-10-30T06:40:14;14.20;;;9.43;;
8228;SDS011;4155;50.118;8.714;2022-10-30T06:42:42;13.07;;;8.23;;
8228;SDS011;4155;50.118;8.714;2022-10-30T06:45:11;16.47;;;8.20;;
8228;SDS011;4155;50.118;8.714;2022-10-30T06:47:40;22.47;;;8.60;;
8228;SDS011;4155;50.118;8.714;2022-10-30T06:50:10;16.40;;;8.03;;
8228;SDS011;4155;50.118;8.714;2022-10-30T06:52:38;14.10;;;8.30;;
8228;SDS011;4155;50.118;8.714;2022-10-30T06:55:08;16.20;;;8.37;;
8228;SDS011;4155;50.118;8.714;2022-10-30T06:57:36;13.93;;;8.10;;
8228;SDS011;4155;50.118;8.714;2022-10-30T07:00:05;12.30;;;7.97;;
8228;SDS011;4155;50.118;8.714;2022-10-30T07:02:34;12.30;;;7.93;;
8228;SDS011;4155;50.118;8.714;2022-10-30T07:05:01;14.80;;;8.17;;
8228;SDS011;4155;50.118;8.714;2022-10-30T07:07:29;12.87;;;7.80;;
8228;SDS011;4155;50.118;8.714;2022-10-30T07:09:57;14.03;;;7.40;;
8228;SDS011;4155;50.118;8.714;2022-10-30T07:12:26;16.80;;;7.80;;
8228;SDS011;4155;50.118;8.714;2022-10-30T07:14:53;14.40;;;7.47;;
8228;SDS011;4155;50.118;8.714;2022-10-30T07:17:21;11.97;;;7.40;;
8228;SDS011;4155;50.118;8.714;2022-10-30T07:19:48;15.17;;;6.37;;
8228;SDS011;4155;50.118;8.714;2022-10-30T07:22:16;10.00;;;5.90;;
8228;SDS011;4155;50.118;8.714;2022-10-30T07:24:44;17.40;;;6.87;;
8228;SDS011;4155;50.118;8.714;2022-10-30T07:27:11;10.20;;;6.77;;
8228;SDS011;4155;50.118;8.714;2022-10-30T07:29:40;10.03;;;6.67;;
8228;SDS011;4155;50.118;8.714;2022-10-30T07:32:10;9.57;;;6.03;;
8228;SDS011;4155;50.118;8.714;2022-10-30T07:34:38;11.83;;;6.27;;
8228;SDS011;4155;50.118;8.714;2022-10-30T07:37:05;8.50;;;5.87;;
8228;SDS011;4155;50.118;8.714;2022-10-30T07:39:33;8.00;;;5.50;;
8228;SDS011;4155;50.118;8.714;2022-10-30T07:42:02;12.03;;;6.60;;
8228;SDS011;4155;50.118;8.714;2022-10-30T07:44:31;14.30;;;5.80;;
8228;SDS011;4155;50.118;8.714;2022-10-30T07:47:00;12.10;;;5.70;;
8228;SDS011;4155;50.118;8.714;2022-10-30T07:49:28;12.47;;;6.17;;
8228;SDS011;4155;50.118;8.714;2022-10-30T07:51:55;10.27;;;6.00;;
8228;SDS011;4155;50.118;8.714;2022-10-30T07:54:23;13.23;;;6.70;;
8228;SDS011;4155;50.118;8.714;2022-10-30T07:56:50;15.40;;;6.13;;
8228;SDS011;4155;50.118;8.714;2022-10-30T07:59:18;13.93;;;5.20;;
8228;SDS011;4155;50.118;8.714;2022-10-30T08:01:46;13.40;;;6.63;;
8228;SDS011;4155;50.118;8.714;2022-10-30T08:04:16;9.73;;;6.20;;
8228;SDS011;4155;50.118;8.714;2022-10-30T08:06:44;11.60;;;6.67;;
8228;SDS011;4155;50.118;8.714;2022-10-30T08:09:14;10.93;;;7.47;;
8228;SDS011;4155;50.118;8.714;2022-10-30T08:11:41;15.93;;;6.57;;
8228;SDS011;4155;50.118;8.714;2022-10-30T08:14:09;10.23;;;6.30;;
8228;SDS011;4155;50.118;8.714;2022-10-30T08:16:37;13.67;;;7.30;;
8228;SDS011;4155;50.118;8.714;2022-10-30T08:19:04;10.90;;;6.07;;
8228;SDS011;4155;50.118;8.714;2022-10-30T08:21:34;11.70;;;6.40;;
8228;SDS011;4155;50.118;8.714;2022-10-30T08:24:03;15.33;;;7.80;;
8228;SDS011;4155;50.118;8.714;2022-10-30T08:26:31;9.77;;;6.13;;
8228;SDS011;4155;50.118;8.714;2022-10-30T08:28:59;20.30;;;7.30;;
8228;SDS011;4155;50.118;8.714;2022-10-30T08:31:27;10.87;;;5.80;;
8228;SDS011;4155;50.118;8.714;2022-10-30T08:33:54;11.20;;;6.10;;
8228;SDS011;4155;50.118;8.714;2022-10-30T08:36:22;11.77;;;7.20;;
8228;SDS011;4155;50.118;8.714;2022-10-30T08:38:51;11.07;;;6.60;;
8228;SDS011;4155;50.118;8.714;2022-10-30T08:41:19;10.07;;;5.30;;
8228;SDS011;4155;50.118;8.714;2022-10-30T08:43:46;12.10;;;6.43;;
8228;SDS011;4155;50.118;8.714;2022-10-30T08:46:14;8.87;;;6.13;;
8228;SDS011;4155;50.118;8.714;2022-10-30T08:48:42;10.63;;;6.23;;
8228;SDS011;4155;50.118;8.714;2022-10-30T08:51:09;16.60;;;6.40;;
8228;SDS011;4155;50.118;8.714;2022-10-30T08:53:37;10.87;;;7.03;;
8228;SDS011;4155;50.118;8.714;2022-10-30T08:56:06;12.23;;;6.33;;
8228;SDS011;4155;50.118;8.714;2022-10-30T08:58:34;12.53;;;7.57;;
8228;SDS011;4155;50.118;8.714;2022-10-30T09:01:02;12.67;;;6.60;;
8228;SDS011;4155;50.118;8.714;2022-10-30T09:03:30;10.53;;;6.00;;
8228;SDS011;4155;50.118;8.714;2022-10-30T09:05:57;11.70;;;6.60;;
8228;SDS011;4155;50.118;8.714;2022-10-30T09:08:26;9.70;;;6.43;;
8228;SDS011;4155;50.118;8.714;2022-10-30T09:10:54;17.80;;;7.03;;
8228;SDS011;4155;50.118;8.714;2022-10-30T09:13:24;14.00;;;6.73;;
8228;SDS011;4155;50.118;8.714;2022-10-30T09:15:52;31.40;;;7.90;;
8228;SDS011;4155;50.118;8.714;2022-10-30T09:18:19;12.20;;;6.80;;
8228;SDS011;4155;50.118;8.714;2022-10-30T09:20:47;14.03;;;7.20;;
8228;SDS011;4155;50.118;8.714;2022-10-30T09:23:15;11.33;;;6.50;;
8228;SDS011;4155;50.118;8.714;2022-10-30T09:25:42;14.73;;;6.97;;
8228;SDS011;4155;50.118;8.714;2022-10-30T09:28:10;10.87;;;7.20;;
8228;SDS011;4155;50.118;8.714;2022-10-30T09:30:39;13.37;;;7.10;;
8228;SDS011;4155;50.118;8.714;2022-10-30T09:33:07;18.87;;;7.90;;
8228;SDS011;4155;50.118;8.714;2022-10-30T09:35:35;14.70;;;7.67;;
8228;SDS011;4155;50.118;8.714;2022-10-30T09:38:05;10.47;;;7.47;;
8228;SDS011;4155;50.118;8.714;2022-10-30T09:40:36;12.80;;;7.47;;
8228;SDS011;4155;50.118;8.714;2022-10-30T09:43:14;15.70;;;7.27;;
8228;SDS011;4155;50.118;8.714;2022-10-30T09:45:54;20.23;;;8.03;;
8228;SDS011;4155;50.118;8.714;2022-10-30T09:48:41;15.53;;;7.73;;
8228;SDS011;4155;50.118;8.714;2022-10-30T09:51:39;12.13;;;7.50;;
8228;SDS011;4155;50.118;8.714;2022-10-30T09:54:17;13.50;;;6.70;;
8228;SDS011;4155;50.118;8.714;2022-10-30T09:56:55;18.27;;;8.67;;
8228;SDS011;4155;50.118;8.714;2022-10-30T09:59:31;20.73;;;8.80;;
8228;SDS011;4155;50.118;8.714;2022-10-30T10:02:12;12.87;;;7.03;;
8228;SDS011;4155;50.118;8.714;2022-10-30T10:04:47;19.20;;;7.97;;
8228;SDS011;4155;50.118;8.714;2022-10-30T10:07:19;15.50;;;7.30;;
8228;SDS011;4155;50.118;8.714;2022-10-30T10:09:50;15.43;;;7.07;;
8228;SDS011;4155;50.118;8.714;2022-10-30T10:12:22;13.07;;;7.30;;
8228;SDS011;4155;50.118;8.714;2022-10-30T10:14:54;13.83;;;7.80;;
8228;SDS011;4155;50.118;8.714;2022-10-30T10:17:27;12.17;;;7.40;;
8228;SDS011;4155;50.118;8.714;2022-10-30T10:20:00;13.23;;;7.37;;
8228;SDS011;4155;50.118;8.714;2022-10-30T10:22:32;16.60;;;7.60;;
8228;SDS011;4155;50.118;8.714;2022-10-30T10:25:05;14.70;;;6.90;;
8228;SDS011;4155;50.118;8.714;2022-10-30T10:27:41;13.23;;;7.00;;
8228;SDS011;4155;50.118;8.714;2022-10-30T10:30:21;17.40;;;6.13;;
8228;SDS011;4155;50.118;8.714;2022-10-30T10:38:49;8.07;;;5.07;;
8228;SDS011;4155;50.118;8.714;2022-10-30T10:41:30;15.60;;;6.30;;
8228;SDS011;4155;50.118;8.714;2022-10-30T10:44:21;13.83;;;5.87;;
8228;SDS011;4155;50.118;8.714;2022-10-30T10:47:06;8.60;;;5.17;;
8228;SDS011;4155;50.118;8.714;2022-10-30T10:50:03;19.00;;;6.27;;
8228;SDS011;4155;50.118;8.714;2022-10-30T10:52:45;12.30;;;6.13;;
8228;SDS011;4155;50.118;8.714;2022-10-30T10:55:18;15.23;;;6.00;;
8228;SDS011;4155;50.118;8.714;2022-10-30T10:57:48;10.70;;;5.77;;
8228;SDS011;4155;50.118;8.714;2022-10-30T11:00:21;13.10;;;6.00;;
8228;SDS011;4155;50.118;8.714;2022-10-30T11:02:53;7.23;;;5.20;;
8228;SDS011;4155;50.118;8.714;2022-10-30T11:05:31;17.00;;;6.17;;
8228;SDS011;4155;50.118;8.714;2022-10-30T11:08:03;17.20;;;5.80;;
8228;SDS011;4155;50.118;8.714;2022-10-30T11:10:38;9.50;;;4.80;;
8228;SDS011;4155;50.118;8.714;2022-10-30T11:13:08;11.80;;;5.03;;
8228;SDS011;4155;50.118;8.714;2022-10-30T11:15:45;11.40;;;4.90;;
8228;SDS011;4155;50.118;8.714;2022-10-30T11:18:27;9.90;;;4.70;;
8228;SDS011;4155;50.118;8.714;2022-10-30T11:20:58;8.03;;;5.17;;
8228;SDS011;4155;50.118;8.714;2022-10-30T11:23:31;8.27;;;4.43;;
8228;SDS011;4155;50.118;8.714;2022-10-30T11:26:00;6.97;;;4.60;;
8228;SDS011;4155;50.118;8.714;2022-10-30T11:28:39;11.63;;;5.33;;
8228;SDS011;4155;50.118;8.714;2022-10-30T11:31:16;8.53;;;4.53;;
8228;SDS011;4155;50.118;8.714;2022-10-30T11:33:45;15.60;;;5.37;;
8228;SDS011;4155;50.118;8.714;2022-10-30T11:36:15;15.63;;;4.40;;
8228;SDS011;4155;50.118;8.714;2022-10-30T11:38:45;8.90;;;4.20;;
8228;SDS011;4155;50.118;8.714;2022-10-30T11:41:15;7.13;;;4.90;;
8228;SDS011;4155;50.118;8.714;2022-10-30T11:44:01;7.87;;;4.83;;
8228;SDS011;4155;50.118;8.714;2022-10-30T11:46:30;6.37;;;4.37;;
8228;SDS011;4155;50.118;8.714;2022-10-30T11:49:01;8.93;;;4.33;;
8228;SDS011;4155;50.118;8.714;2022-10-30T11:51:34;16.50;;;3.90;;
8228;SDS011;4155;50.118;8.714;2022-10-30T11:54:05;14.93;;;4.57;;
8228;SDS011;4155;50.118;8.714;2022-10-30T11:56:34;9.93;;;4.07;;
8228;SDS011;4155;50.118;8.714;2022-10-30T11:59:02;12.23;;;4.87;;
8228;SDS011;4155;50.118;8.714;2022-10-30T12:01:32;8.60;;;3.60;;
8228;SDS011;4155;50.118;8.714;2022-10-30T12:04:12;9.13;;;4.00;;
8228;SDS011;4155;50.118;8.714;2022-10-30T12:06:43;9.90;;;3.50;;
8228;SDS011;4155;50.118;8.714;2022-10-30T12:09:11;11.70;;;3.67;;
8228;SDS011;4155;50.118;8.714;2022-10-30T12:11:41;9.50;;;3.60;;
8228;SDS011;4155;50.118;8.714;2022-10-30T12:14:15;7.13;;;3.70;;
8228;SDS011;4155;50.118;8.714;2022-10-30T12:16:45;9.23;;;3.77;;
8228;SDS011;4155;50.118;8.714;2022-10-30T12:19:16;6.70;;;3.60;;
8228;SDS011;4155;50.118;8.714;2022-10-30T12:21:49;13.30;;;4.20;;
8228;SDS011;4155;50.118;8.714;2022-10-30T12:24:19;8.33;;;3.37;;
8228;SDS011;4155;50.118;8.714;2022-10-30T12:26:51;8.90;;;3.83;;
8228;SDS011;4155;50.118;8.714;2022-10-30T12:29:22;5.80;;;3.20;;
8228;SDS011;4155;50.118;8.714;2022-10-30T12:32:21;7.43;;;3.20;;
8228;SDS011;4155;50.118;8.714;2022-10-30T12:34:53;6.80;;;3.70;;
8228;SDS011;4155;50.118;8.714;2022-10-30T12:37:28;9.70;;;3.17;;
8228;SDS011;4155;50.118;8.714;2022-10-30T12:40:02;9.43;;;3.20;;
8228;SDS011;4155;50.118;8.714;2022-10-30T12:42:36;9.23;;;3.10;;
8228;SDS011;4155;50.118;8.714;2022-10-30T12:45:11;9.33;;;3.47;;
8228;SDS011;4155;50.118;8.714;2022-10-30T12:47:43;8.53;;;3.70;;
8228;SDS011;4155;50.118;8.714;2022-10-30T12:50:18;14.60;;;4.13;;
8228;SDS011;4155;50.118;8.714;2022-10-30T12:52:54;10.30;;;3.00;;
8228;SDS011;4155;50.118;8.714;2022-10-30T12:55:27;8.23;;;3.30;;
8228;SDS011;4155;50.118;8.714;2022-10-30T12:58:02;5.70;;;3.43;;
8228;SDS011;4155;50.118;8.714;2022-10-30T13:00:42;7.43;;;3.30;;
8228;SDS011;4155;50.118;8.714;2022-10-30T13:03:20;8.87;;;3.83;;
8228;SDS011;4155;50.118;8.714;2022-10-30T13:05:53;10.07;;;3.40;;
8228;SDS011;4155;50.118;8.714;2022-10-30T13:08:26;4.30;;;3.43;;
8228;SDS011;4155;50.118;8.714;2022-10-30T13:11:01;4.63;;;3.13;;
8228;SDS011;4155;50.118;8.714;2022-10-30T13:13:34;10.00;;;3.30;;
8228;SDS011;4155;50.118;8.714;2022-10-30T13:16:05;8.90;;;2.90;;
8228;SDS011;4155;50.118;8.714;2022-10-30T13:18:38;10.20;;;3.57;;
8228;SDS011;4155;50.118;8.714;2022-10-30T13:21:10;8.03;;;3.77;;
8228;SDS011;4155;50.118;8.714;2022-10-30T13:23:50;6.30;;;3.23;;
8228;SDS011;4155;50.118;8.714;2022-10-30T13:26:23;7.20;;;3.97;;
8228;SDS011;4155;50.118;8.714;2022-10-30T13:29:00;5.87;;;3.70;;
8228;SDS011;4155;50.118;8.714;2022-10-30T13:31:36;5.43;;;3.07;;
8228;SDS011;4155;50.118;8.714;2022-10-30T13:34:18;9.87;;;3.60;;
8228;SDS011;4155;50.118;8.714;2022-10-30T13:36:54;13.40;;;3.70;;
8228;SDS011;4155;50.118;8.714;2022-10-30T13:39:29;7.90;;;3.53;;
8228;SDS011;4155;50.118;8.714;2022-10-30T13:42:11;8.53;;;3.77;;
8228;SDS011;4155;50.118;8.714;2022-10-30T13:44:51;4.63;;;3.17;;
8228;SDS011;4155;50.118;8.714;2022-10-30T13:47:31;6.70;;;3.53;;
8228;SDS011;4155;50.118;8.714;2022-10-30T13:50:10;15.47;;;3.60;;
8228;SDS011;4155;50.118;8.714;2022-10-30T13:52:49;5.83;;;3.73;;
8228;SDS011;4155;50.118;8.714;2022-10-30T13:55:23;7.67;;;3.43;;
8228;SDS011;4155;50.118;8.714;2022-10-30T13:57:55;8.60;;;3.47;;
8228;SDS011;4155;50.118;8.714;2022-10-30T14:00:32;5.67;;;3.57;;
8228;SDS011;4155;50.118;8.714;2022-10-30T14:03:16;4.73;;;2.80;;
8228;SDS011;4155;50.118;8.714;2022-10-30T14:05:54;4.53;;;3.40;;
8228;SDS011;4155;50.118;8.714;2022-10-30T14:08:32;6.77;;;3.50;;
8228;SDS011;4155;50.118;8.714;2022-10-30T14:11:14;5.37;;;2.93;;
8228;SDS011;4155;50.118;8.714;2022-10-30T14:13:45;6.47;;;3.47;;
8228;SDS011;4155;50.118;8.714;2022-10-30T14:19:30;13.83;;;4.70;;
8228;SDS011;4155;50.118;8.714;2022-10-30T14:21:58;8.37;;;4.20;;
8228;SDS011;4155;50.118;8.714;2022-10-30T14:24:26;8.63;;;3.53;;
8228;SDS011;4155;50.118;8.714;2022-10-30T14:27:09;7.50;;;4.20;;
8228;SDS011;4155;50.118;8.714;2022-10-30T14:29:44;7.10;;;3.60;;
8228;SDS011;4155;50.118;8.714;2022-10-30T14:35:28;8.50;;;3.40;;
8228;SDS011;4155;50.118;8.714;2022-10-30T14:38:22;14.00;;;4.30;;
8228;SDS011;4155;50.118;8.714;2022-10-30T14:41:05;11.20;;;3.93;;
8228;SDS011;4155;50.118;8.714;2022-10-30T14:43:48;13.50;;;4.30;;
8228;SDS011;4155;50.118;8.714;2022-10-30T14:46:26;12.30;;;3.93;;
8228;SDS011;4155;50.118;8.714;2022-10-30T14:49:02;8.07;;;4.37;;
8228;SDS011;4155;50.118;8.714;2022-10-30T14:51:43;6.93;;;4.00;;
8228;SDS011;4155;50.118;8.714;2022-10-30T14:54:19;9.63;;;4.03;;
8228;SDS011;4155;50.118;8.714;2022-10-30T14:56:53;8.00;;;3.77;;
8228;SDS011;4155;50.118;8.714;2022-10-30T14:59:23;5.17;;;3.40;;
8228;SDS011;4155;50.118;8.714;2022-10-30T15:02:01;7.83;;;3.70;;
8228;SDS011;4155;50.118;8.714;2022-10-30T15:04:41;7.43;;;4.10;;
8228;SDS011;4155;50.118;8.714;2022-10-30T15:07:23;12.87;;;4.40;;
8228;SDS011;4155;50.118;8.714;2022-10-30T15:10:02;5.30;;;4.10;;
8228;SDS011;4155;50.118;8.714;2022-10-30T15:12:56;8.20;;;3.83;;
8228;SDS011;4155;50.118;8.714;2022-10-30T15:15:33;7.63;;;4.73;;
8228;SDS011;4155;50.118;8.714;2022-10-30T15:18:03;7.27;;;3.80;;
8228;SDS011;4155;50.118;8.714;2022-10-30T15:20:36;7.90;;;4.37;;
8228;SDS011;4155;50.118;8.714;2022-10-30T15:23:08;11.80;;;4.30;;
8228;SDS011;4155;50.118;8.714;2022-10-30T15:25:43;9.33;;;5.00;;
8228;SDS011;4155;50.118;8.714;2022-10-30T15:28:14;13.17;;;4.03;;
8228;SDS011;4155;50.118;8.714;2022-10-30T15:30:59;9.80;;;4.80;;
8228;SDS011;4155;50.118;8.714;2022-10-30T15:33:27;11.27;;;4.60;;
8228;SDS011;4155;50.118;8.714;2022-10-30T15:35:58;12.50;;;4.77;;
8228;SDS011;4155;50.118;8.714;2022-10-30T15:38:26;7.30;;;3.93;;